Time;durP1;ratioP1;P1;durP2;ratioP2;P2;SDS_P1;SDS_P2;PMS_P1;PMS_P2;Temp;Humidity;BMP_temperature;BMP_pressure;BME280_temperature;BME280_humidity;BME280_pressure;Samples;Min_cycle;Max_cycle;Signal;HPM_P1;HPM_P2
2022/11/01 00:01:43;;;;;;;186.27;41.37;;;;;;;;;;5156485;27;20483;-72
2022/11/01 00:04:11;;;;;;;344.70;50.30;;;;;;;;;;5155987;27;20500;-73
2022/11/01 00:06:38;;;;;;;351.10;50.57;;;;;;;;;;5154733;27;20465;-72
2022/11/01 00:09:07;;;;;;;174.83;37.80;;;;;;;;;;5156416;27;20447;-72
2022/11/01 00:11:34;;;;;;;104.17;31.43;;;;;;;;;;5154806;27;20456;-73
2022/11/01 00:14:01;;;;;;;265.30;39.80;;;;;;;;;;5155997;27;20566;-73
2022/11/01 00:16:28;;;;;;;152.60;30.53;;;;;;;;;;5155975;27;20478;-73
2022/11/01 00:18:55;;;;;;;253.10;37.73;;;;;;;;;;5156198;27;20452;-73
2022/11/01 00:21:23;;;;;;;217.77;36.20;;;;;;;;;;5155839;27;20455;-73
2022/11/01 00:23:50;;;;;;;116.40;28.27;;;;;;;;;;5155744;27;20928;-74
2022/11/01 00:26:20;;;;;;;139.43;30.10;;;;;;;;;;5154746;27;20463;-73
2022/11/01 00:28:47;;;;;;;175.30;35.30;;;;;;;;;;5155773;27;20447;-73
2022/11/01 00:31:15;;;;;;;49.47;22.30;;;;;;;;;;5155747;27;20444;-73
2022/11/01 00:33:42;;;;;;;94.50;25.07;;;;;;;;;;5155323;27;20447;-73
2022/11/01 00:36:09;;;;;;;72.37;22.53;;;;;;;;;;5154460;27;20467;-72
2022/11/01 00:38:37;;;;;;;50.10;21.47;;;;;;;;;;5155724;27;20450;-72
2022/11/01 00:41:05;;;;;;;93.33;23.53;;;;;;;;;;5154200;27;20451;-72
2022/11/01 00:43:34;;;;;;;56.67;19.97;;;;;;;;;;5155171;27;21000;-72
2022/11/01 00:46:02;;;;;;;73.83;19.67;;;;;;;;;;5154342;27;20478;-72
2022/11/01 00:48:29;;;;;;;35.10;17.97;;;;;;;;;;5155604;27;20458;-72
2022/11/01 00:50:56;;;;;;;35.00;16.43;;;;;;;;;;5155527;27;20455;-72
2022/11/01 00:53:23;;;;;;;20.87;15.27;;;;;;;;;;5155281;27;20444;-72
2022/11/01 00:55:51;;;;;;;43.37;16.80;;;;;;;;;;5154861;27;20468;-72
2022/11/01 00:58:18;;;;;;;47.43;17.90;;;;;;;;;;5155396;27;20811;-73
2022/11/01 01:00:47;;;;;;;25.67;17.00;;;;;;;;;;5155263;27;20965;-72
2022/11/01 01:03:14;;;;;;;50.40;19.47;;;;;;;;;;5155217;27;20509;-72
2022/11/01 01:05:42;;;;;;;61.67;20.13;;;;;;;;;;5154627;27;20994;-72
2022/11/01 01:08:09;;;;;;;88.57;19.93;;;;;;;;;;5155245;27;20535;-72
2022/11/01 01:10:36;;;;;;;34.40;15.37;;;;;;;;;;5155058;27;20450;-72
2022/11/01 01:13:03;;;;;;;82.03;18.10;;;;;;;;;;5155026;27;20458;-73
2022/11/01 01:15:31;;;;;;;74.03;19.43;;;;;;;;;;5153812;27;20483;-72
2022/11/01 01:17:59;;;;;;;152.63;23.73;;;;;;;;;;5154067;27;20828;-72
2022/11/01 01:20:26;;;;;;;86.97;19.53;;;;;;;;;;5154313;27;20447;-73
2022/11/01 01:22:53;;;;;;;101.10;19.73;;;;;;;;;;5154502;27;20992;-72
2022/11/01 01:25:21;;;;;;;195.97;24.87;;;;;;;;;;5152829;27;20452;-73
2022/11/01 01:27:48;;;;;;;113.60;20.63;;;;;;;;;;5154721;27;20493;-73
2022/11/01 01:30:16;;;;;;;124.87;21.30;;;;;;;;;;5154916;27;20452;-73
2022/11/01 01:32:43;;;;;;;99.53;20.73;;;;;;;;;;5154673;27;20450;-73
2022/11/01 01:35:12;;;;;;;149.90;25.13;;;;;;;;;;5153393;27;20468;-73
2022/11/01 01:37:39;;;;;;;178.10;26.80;;;;;;;;;;5154414;27;20531;-73
2022/11/01 01:40:07;;;;;;;117.13;21.47;;;;;;;;;;5154560;27;20447;-73
2022/11/01 01:42:35;;;;;;;58.10;19.27;;;;;;;;;;5154345;27;20515;-73
2022/11/01 01:45:17;;;;;;;69.43;17.37;;;;;;;;;;5154295;27;20924;-72
2022/11/01 01:47:46;;;;;;;139.38;30.50;;;;;;;;;;5153351;27;20459;-72
2022/11/01 01:50:16;;;;;;;93.27;23.37;;;;;;;;;;5154528;27;20210;-72
2022/11/01 01:52:46;;;;;;;79.33;21.70;;;;;;;;;;5152893;27;20444;-72
2022/11/01 01:55:14;;;;;;;37.70;23.10;;;;;;;;;;5154015;27;20461;-71
2022/11/01 01:57:42;;;;;;;36.43;21.17;;;;;;;;;;5152984;27;20823;-72
2022/11/01 02:00:10;;;;;;;31.90;19.40;;;;;;;;;;5154460;27;20828;-72
2022/11/01 02:02:37;;;;;;;105.40;23.40;;;;;;;;;;5154146;27;20479;-72
2022/11/01 02:05:07;;;;;;;61.73;21.47;;;;;;;;;;5153787;27;20447;-72
2022/11/01 02:07:36;;;;;;;81.47;24.10;;;;;;;;;;5154536;27;20454;-72
2022/11/01 02:10:03;;;;;;;61.47;22.80;;;;;;;;;;5154330;27;20825;-72
2022/11/01 02:12:33;;;;;;;51.23;23.47;;;;;;;;;;5152547;27;20476;-72
2022/11/01 02:15:00;;;;;;;45.37;22.03;;;;;;;;;;5153750;27;20444;-72
2022/11/01 02:17:29;;;;;;;57.33;23.37;;;;;;;;;;5154082;27;20452;-73
2022/11/01 02:20:04;;;;;;;105.93;26.33;;;;;;;;;;5154148;27;20462;-72
2022/11/01 02:22:42;;;;;;;71.43;20.63;;;;;;;;;;5154018;27;20486;-73
2022/11/01 02:25:25;;;;;;;372.63;35.63;;;;;;;;;;5152176;27;20453;-72
2022/11/01 02:27:58;;;;;;;340.53;33.63;;;;;;;;;;5152966;27;20460;-72
2022/11/01 02:30:26;;;;;;;431.70;37.10;;;;;;;;;;5156692;27;20451;-73
2022/11/01 02:33:06;;;;;;;242.23;28.73;;;;;;;;;;5157969;27;20454;-72
2022/11/01 02:35:47;;;;;;;144.53;24.50;;;;;;;;;;5156658;27;20471;-72
2022/11/01 02:38:17;;;;;;;165.87;24.83;;;;;;;;;;5158080;27;20546;-72
2022/11/01 02:40:50;;;;;;;106.60;24.43;;;;;;;;;;5158227;27;20448;-72
2022/11/01 02:43:20;;;;;;;236.87;28.10;;;;;;;;;;5158325;27;20489;-72
2022/11/01 02:45:49;;;;;;;221.77;31.33;;;;;;;;;;5157531;27;21083;-73
2022/11/01 02:48:19;;;;;;;213.40;28.20;;;;;;;;;;5157980;27;20959;-73
2022/11/01 02:50:48;;;;;;;240.20;31.80;;;;;;;;;;5157815;27;20499;-73
2022/11/01 02:53:15;;;;;;;279.90;31.27;;;;;;;;;;5157842;27;20444;-72
2022/11/01 02:55:42;;;;;;;232.47;28.87;;;;;;;;;;5157034;27;20474;-72
2022/11/01 02:58:13;;;;;;;183.53;21.80;;;;;;;;;;5157783;27;20443;-72
2022/11/01 03:00:41;;;;;;;240.47;27.03;;;;;;;;;;5156064;27;20455;-73
2022/11/01 03:03:12;;;;;;;148.57;21.37;;;;;;;;;;5157620;27;20498;-73
2022/11/01 03:05:48;;;;;;;253.40;30.50;;;;;;;;;;5154985;27;20495;-73
2022/11/01 03:08:17;;;;;;;137.73;24.70;;;;;;;;;;5157568;27;20457;-73
2022/11/01 03:10:47;;;;;;;169.20;23.60;;;;;;;;;;5157522;27;20447;-72
2022/11/01 03:13:21;;;;;;;145.07;24.77;;;;;;;;;;5157431;27;20428;-73
2022/11/01 03:16:05;;;;;;;191.23;25.27;;;;;;;;;;5156861;27;20467;-73
2022/11/01 03:18:33;;;;;;;263.10;31.30;;;;;;;;;;5157329;27;20827;-73
2022/11/01 03:21:14;;;;;;;262.03;27.47;;;;;;;;;;5157349;27;20450;-72
2022/11/01 03:23:44;;;;;;;261.77;26.90;;;;;;;;;;5156921;27;20539;-72
2022/11/01 03:26:13;;;;;;;156.97;20.37;;;;;;;;;;5154701;27;20479;-72
2022/11/01 03:28:42;;;;;;;49.10;13.50;;;;;;;;;;5157027;27;20747;-72
2022/11/01 03:31:12;;;;;;;151.90;16.43;;;;;;;;;;5157292;27;20447;-72
2022/11/01 03:33:41;;;;;;;267.00;20.30;;;;;;;;;;5156471;27;20447;-72
2022/11/01 03:36:10;;;;;;;215.80;18.50;;;;;;;;;;5153690;27;20467;-72
2022/11/01 03:38:40;;;;;;;182.07;17.27;;;;;;;;;;5156777;27;20454;-72
2022/11/01 03:41:10;;;;;;;68.43;16.57;;;;;;;;;;5154542;27;20447;-72
2022/11/01 03:43:37;;;;;;;82.20;16.90;;;;;;;;;;5156167;27;20527;-73
2022/11/01 03:46:04;;;;;;;98.33;17.53;;;;;;;;;;5156790;27;20836;-72
2022/11/01 03:48:31;;;;;;;120.93;16.17;;;;;;;;;;5156579;27;20448;-73
2022/11/01 03:50:58;;;;;;;52.97;14.90;;;;;;;;;;5156864;27;20443;-73
2022/11/01 03:53:27;;;;;;;105.67;16.13;;;;;;;;;;5156333;27;20444;-73
2022/11/01 03:55:54;;;;;;;211.87;21.83;;;;;;;;;;5156433;27;20477;-72
2022/11/01 03:58:21;;;;;;;61.53;13.20;;;;;;;;;;5156646;27;20546;-72
2022/11/01 04:00:49;;;;;;;331.27;28.63;;;;;;;;;;5156460;27;20461;-72
2022/11/01 04:03:16;;;;;;;172.60;17.13;;;;;;;;;;5156622;27;20492;-72
2022/11/01 04:05:43;;;;;;;142.30;17.83;;;;;;;;;;5155644;27;20838;-72
2022/11/01 04:08:11;;;;;;;82.27;14.00;;;;;;;;;;5156364;27;20447;-72
2022/11/01 04:10:40;;;;;;;94.67;16.20;;;;;;;;;;5154616;27;20455;-73
2022/11/01 04:13:07;;;;;;;90.30;15.40;;;;;;;;;;5156178;27;20516;-72
2022/11/01 04:21:06;;;;;;;109.97;16.57;;;;;;;;;;5156385;27;20924;-72
2022/11/01 04:23:33;;;;;;;241.47;23.43;;;;;;;;;;5155718;27;21006;-72
2022/11/01 04:26:02;;;;;;;53.53;12.80;;;;;;;;;;5153662;27;20470;-72
2022/11/01 04:28:29;;;;;;;188.77;17.70;;;;;;;;;;5155931;27;20456;-73
2022/11/01 04:30:57;;;;;;;214.67;19.43;;;;;;;;;;5155799;27;20451;-72
2022/11/01 04:33:24;;;;;;;171.60;16.83;;;;;;;;;;5155780;27;20443;-72
2022/11/01 04:35:51;;;;;;;221.77;22.57;;;;;;;;;;5154249;27;20976;-72
2022/11/01 04:38:18;;;;;;;93.07;14.17;;;;;;;;;;5155951;27;20447;-72
2022/11/01 04:40:45;;;;;;;178.07;18.80;;;;;;;;;;5155848;27;20460;-72
2022/11/01 04:43:14;;;;;;;323.67;27.23;;;;;;;;;;5155793;27;20506;-73
2022/11/01 04:45:41;;;;;;;223.87;20.50;;;;;;;;;;5153267;27;20489;-72
2022/11/01 04:48:11;;;;;;;502.60;47.30;;;;;;;;;;5155565;27;20455;-73
2022/11/01 04:50:38;;;;;;;308.37;30.43;;;;;;;;;;5154334;27;20459;-74
2022/11/01 04:53:05;;;;;;;409.10;37.27;;;;;;;;;;5154562;27;20451;-73
2022/11/01 04:55:33;;;;;;;217.90;29.93;;;;;;;;;;5154881;27;20471;-72
2022/11/01 04:58:00;;;;;;;11.20;10.00;;;;;;;;;;5155453;27;20458;-73
2022/11/01 05:00:30;;;;;;;10.50;9.40;;;;;;;;;;5155730;27;20823;-72
2022/11/01 05:03:01;;;;;;;12.73;9.50;;;;;;;;;;5155291;27;21048;-72
2022/11/01 05:05:28;;;;;;;19.90;10.77;;;;;;;;;;5154652;27;20476;-72
2022/11/01 05:07:59;;;;;;;44.23;17.87;;;;;;;;;;5155253;27;20454;-72
2022/11/01 05:10:27;;;;;;;41.53;14.30;;;;;;;;;;5155177;27;20495;-73
2022/11/01 05:12:54;;;;;;;21.40;10.80;;;;;;;;;;5155088;27;20469;-73
2022/11/01 05:15:29;;;;;;;17.63;11.20;;;;;;;;;;5109957;27;20603;-73
2022/11/01 05:17:56;;;;;;;15.23;11.17;;;;;;;;;;5110506;28;20438;-73
2022/11/01 05:20:23;;;;;;;19.20;10.90;;;;;;;;;;5110328;28;20449;-73
2022/11/01 05:22:51;;;;;;;17.67;11.67;;;;;;;;;;5109176;28;20441;-73
2022/11/01 05:25:18;;;;;;;17.60;10.70;;;;;;;;;;5106953;28;20442;-73
2022/11/01 05:27:45;;;;;;;13.73;10.00;;;;;;;;;;5108621;28;20970;-72
2022/11/01 05:30:13;;;;;;;30.17;11.33;;;;;;;;;;5110563;28;20935;-72
2022/11/01 05:32:41;;;;;;;20.00;11.53;;;;;;;;;;5110150;28;20442;-72
2022/11/01 05:35:09;;;;;;;37.40;11.80;;;;;;;;;;5107812;28;20489;-74
2022/11/01 05:37:36;;;;;;;110.20;17.53;;;;;;;;;;5109965;28;20456;-73
2022/11/01 05:40:03;;;;;;;32.03;13.13;;;;;;;;;;5110107;28;20510;-73
2022/11/01 05:42:30;;;;;;;78.37;16.20;;;;;;;;;;5110133;28;20487;-73
2022/11/01 05:44:57;;;;;;;131.43;18.90;;;;;;;;;;5109647;28;20449;-73
2022/11/01 05:47:24;;;;;;;229.07;23.10;;;;;;;;;;5109784;28;20470;-72
2022/11/01 05:49:53;;;;;;;169.70;41.70;;;;;;;;;;5109889;28;20446;-73
2022/11/01 05:52:20;;;;;;;152.17;22.70;;;;;;;;;;5109835;28;20450;-73
2022/11/01 05:54:47;;;;;;;130.77;17.93;;;;;;;;;;5109215;28;21037;-73
2022/11/01 05:57:14;;;;;;;156.33;17.60;;;;;;;;;;5107821;28;20470;-73
2022/11/01 05:59:41;;;;;;;198.37;20.27;;;;;;;;;;5109546;28;20457;-72
2022/11/01 06:02:09;;;;;;;240.90;23.07;;;;;;;;;;5108354;28;20453;-72
2022/11/01 06:04:36;;;;;;;131.80;18.30;;;;;;;;;;5108800;28;20533;-74
2022/11/01 06:07:05;;;;;;;130.97;17.50;;;;;;;;;;5109525;28;20837;-72
2022/11/01 06:09:32;;;;;;;118.67;16.60;;;;;;;;;;5109289;28;20450;-73
2022/11/01 06:11:59;;;;;;;246.13;70.33;;;;;;;;;;5109500;28;20456;-73
2022/11/01 06:14:26;;;;;;;179.63;23.00;;;;;;;;;;5108505;28;20485;-73
2022/11/01 06:16:53;;;;;;;232.97;20.37;;;;;;;;;;5109219;28;20466;-73
2022/11/01 06:19:20;;;;;;;215.67;29.47;;;;;;;;;;5109314;28;20472;-72
2022/11/01 06:21:48;;;;;;;187.77;20.17;;;;;;;;;;5109058;28;20454;-73
2022/11/01 06:24:16;;;;;;;201.17;22.20;;;;;;;;;;5106167;28;20454;-73
2022/11/01 06:26:43;;;;;;;191.20;19.17;;;;;;;;;;5096154;28;20470;-73
2022/11/01 06:29:10;;;;;;;198.00;19.30;;;;;;;;;;5094708;28;20466;-72
2022/11/01 06:31:38;;;;;;;254.73;22.93;;;;;;;;;;5093807;28;20830;-73
2022/11/01 06:34:05;;;;;;;188.27;18.37;;;;;;;;;;5090326;28;20513;-73
2022/11/01 06:36:32;;;;;;;109.87;18.40;;;;;;;;;;5092530;28;20854;-73
2022/11/01 06:38:59;;;;;;;188.60;19.53;;;;;;;;;;5094826;28;20810;-72
2022/11/01 06:41:28;;;;;;;140.50;16.60;;;;;;;;;;5095107;28;20451;-73
2022/11/01 06:43:55;;;;;;;137.40;16.17;;;;;;;;;;5094316;28;20944;-73
2022/11/01 06:46:22;;;;;;;104.80;13.90;;;;;;;;;;5094759;28;20472;-73
2022/11/01 06:48:49;;;;;;;57.87;11.87;;;;;;;;;;5093813;28;20474;-73
2022/11/01 06:51:16;;;;;;;107.23;15.40;;;;;;;;;;5094742;28;20454;-73
2022/11/01 06:53:43;;;;;;;108.13;13.53;;;;;;;;;;5093998;28;20457;-74
2022/11/01 06:56:10;;;;;;;150.50;15.60;;;;;;;;;;5094605;28;20474;-72
2022/11/01 06:58:39;;;;;;;212.87;19.63;;;;;;;;;;5087250;28;20451;-74
2022/11/01 07:01:06;;;;;;;194.37;34.30;;;;;;;;;;5091720;28;20461;-73
2022/11/01 07:03:33;;;;;;;144.57;31.57;;;;;;;;;;5092463;28;20477;-73
2022/11/01 07:06:01;;;;;;;76.87;27.87;;;;;;;;;;5091716;28;20508;-72
2022/11/01 07:08:28;;;;;;;269.60;42.10;;;;;;;;;;5092172;28;20911;-75
2022/11/01 07:10:55;;;;;;;49.23;13.50;;;;;;;;;;5071671;28;20467;-73
2022/11/01 07:13:23;;;;;;;27.83;9.43;;;;;;;;;;5071514;28;20487;-73
2022/11/01 07:15:51;;;;;;;74.47;14.50;;;;;;;;;;5072112;28;20488;-72
2022/11/01 07:18:18;;;;;;;39.27;10.50;;;;;;;;;;5072174;28;20456;-73
2022/11/01 07:20:46;;;;;;;91.30;11.60;;;;;;;;;;5072112;28;20455;-73
2022/11/01 07:23:14;;;;;;;110.10;13.97;;;;;;;;;;5072125;28;20456;-73
2022/11/01 07:25:41;;;;;;;150.47;15.53;;;;;;;;;;5070092;28;20471;-73
2022/11/01 07:28:09;;;;;;;64.07;11.00;;;;;;;;;;5072106;28;20444;-73
2022/11/01 07:30:36;;;;;;;26.73;10.53;;;;;;;;;;5072293;28;20472;-73
2022/11/01 07:33:05;;;;;;;17.57;9.43;;;;;;;;;;5072273;28;20546;-73
2022/11/01 07:35:32;;;;;;;28.90;18.50;;;;;;;;;;5071208;28;20492;-72
2022/11/01 07:38:00;;;;;;;16.13;10.73;;;;;;;;;;5071759;28;20543;-72
2022/11/01 07:40:28;;;;;;;10.57;9.43;;;;;;;;;;5071902;28;20455;-75
2022/11/01 07:42:57;;;;;;;18.20;13.87;;;;;;;;;;5071090;28;21022;-73
2022/11/01 07:45:24;;;;;;;15.37;12.03;;;;;;;;;;5071660;28;20496;-73
2022/11/01 07:47:51;;;;;;;14.50;11.80;;;;;;;;;;5071797;28;20451;-72
2022/11/01 07:50:20;;;;;;;9.60;8.37;;;;;;;;;;5071573;28;20454;-72
2022/11/01 07:52:47;;;;;;;12.07;10.87;;;;;;;;;;5071985;28;21132;-73
2022/11/01 07:55:15;;;;;;;9.10;7.43;;;;;;;;;;5077050;28;20487;-73
2022/11/01 07:57:42;;;;;;;11.03;7.70;;;;;;;;;;5091769;28;20450;-73
2022/11/01 08:00:10;;;;;;;10.10;6.80;;;;;;;;;;5092465;28;20482;-73
2022/11/01 08:02:37;;;;;;;10.50;9.50;;;;;;;;;;5092107;28;20550;-73
2022/11/01 08:05:05;;;;;;;29.67;18.90;;;;;;;;;;5091612;28;20442;-73
2022/11/01 08:07:37;;;;;;;9.00;8.10;;;;;;;;;;5092024;28;20451;-73
2022/11/01 08:10:05;;;;;;;20.57;16.07;;;;;;;;;;5092361;28;20835;-73
2022/11/01 08:12:32;;;;;;;6.93;6.27;;;;;;;;;;5091200;28;20969;-73
2022/11/01 08:15:01;;;;;;;14.23;12.67;;;;;;;;;;5091633;28;20486;-73
2022/11/01 08:17:28;;;;;;;21.07;18.90;;;;;;;;;;5091113;28;20955;-73
2022/11/01 08:19:55;;;;;;;11.40;9.53;;;;;;;;;;5091502;28;20450;-72
2022/11/01 08:22:23;;;;;;;7.27;6.60;;;;;;;;;;5090601;28;20959;-73
2022/11/01 08:24:51;;;;;;;7.73;6.40;;;;;;;;;;5089632;28;20443;-72
2022/11/01 08:27:18;;;;;;;6.97;6.30;;;;;;;;;;5091307;28;20840;-72
2022/11/01 08:29:46;;;;;;;33.20;21.90;;;;;;;;;;5091844;28;20839;-72
2022/11/01 08:32:13;;;;;;;24.30;15.30;;;;;;;;;;5091518;28;20499;-73
2022/11/01 08:34:40;;;;;;;12.50;9.73;;;;;;;;;;5090559;28;20489;-73
2022/11/01 08:37:07;;;;;;;9.87;8.30;;;;;;;;;;5091499;28;20467;-73
2022/11/01 08:39:34;;;;;;;8.90;7.90;;;;;;;;;;5091545;28;20446;-73
2022/11/01 08:42:04;;;;;;;7.73;6.93;;;;;;;;;;5091242;28;20450;-73
2022/11/01 08:44:33;;;;;;;6.80;6.20;;;;;;;;;;5091062;28;20453;-73
2022/11/01 08:47:01;;;;;;;7.53;6.57;;;;;;;;;;5091665;28;20558;-73
2022/11/01 08:49:28;;;;;;;7.10;6.23;;;;;;;;;;5090931;28;20450;-73
2022/11/01 08:51:56;;;;;;;8.43;7.63;;;;;;;;;;5089429;28;20455;-73
2022/11/01 08:54:23;;;;;;;9.63;6.20;;;;;;;;;;5091296;28;21021;-73
2022/11/01 08:56:50;;;;;;;6.73;6.10;;;;;;;;;;5088884;28;20466;-73
2022/11/01 08:59:19;;;;;;;6.17;5.67;;;;;;;;;;5091099;28;20457;-73
2022/11/01 09:01:46;;;;;;;6.93;6.23;;;;;;;;;;5091003;28;20457;-74
2022/11/01 09:04:14;;;;;;;7.30;6.27;;;;;;;;;;5090358;28;20463;-73
2022/11/01 09:06:41;;;;;;;7.83;6.90;;;;;;;;;;5090900;28;20991;-73
2022/11/01 09:09:09;;;;;;;9.87;8.97;;;;;;;;;;5091270;28;20489;-73
2022/11/01 09:11:36;;;;;;;8.40;7.60;;;;;;;;;;5090728;28;20446;-73
2022/11/01 09:14:04;;;;;;;9.43;8.63;;;;;;;;;;5090841;28;20470;-74
2022/11/01 09:16:32;;;;;;;9.83;8.33;;;;;;;;;;5090896;28;20871;-73
2022/11/01 09:19:00;;;;;;;7.60;6.70;;;;;;;;;;5090399;28;20455;-73
2022/11/01 09:21:28;;;;;;;6.63;6.00;;;;;;;;;;5090886;28;20960;-73
2022/11/01 09:23:57;;;;;;;7.03;6.43;;;;;;;;;;5090764;28;21012;-74
2022/11/01 09:26:26;;;;;;;7.67;6.97;;;;;;;;;;5087211;28;20561;-74
2022/11/01 09:28:57;;;;;;;7.60;6.77;;;;;;;;;;5090990;28;20451;-73
2022/11/01 09:31:24;;;;;;;6.37;5.77;;;;;;;;;;5089476;28;20550;-73
2022/11/01 09:33:56;;;;;;;11.10;9.00;;;;;;;;;;5090367;28;20833;-73
2022/11/01 09:36:23;;;;;;;10.03;6.77;;;;;;;;;;5090757;28;20493;-73
2022/11/01 09:38:50;;;;;;;8.13;7.43;;;;;;;;;;5091016;28;20459;-73
2022/11/01 09:41:24;;;;;;;8.00;6.90;;;;;;;;;;5090040;28;20458;-73
2022/11/01 09:43:52;;;;;;;11.07;7.60;;;;;;;;;;5091004;28;20451;-74
2022/11/01 09:46:21;;;;;;;9.77;8.43;;;;;;;;;;5092315;28;20466;-73
2022/11/01 09:48:49;;;;;;;11.43;7.00;;;;;;;;;;5091940;28;20458;-73
2022/11/01 09:51:20;;;;;;;7.27;6.57;;;;;;;;;;5092460;28;20455;-73
2022/11/01 09:53:48;;;;;;;6.90;6.13;;;;;;;;;;5091617;28;20470;-74
2022/11/01 09:56:18;;;;;;;6.37;5.77;;;;;;;;;;5092120;28;20856;-74
2022/11/01 09:58:51;;;;;;;10.43;5.70;;;;;;;;;;5086856;28;20964;-74
2022/11/01 10:01:22;;;;;;;7.63;6.90;;;;;;;;;;5091994;28;20746;-74
2022/11/01 10:04:08;;;;;;;7.97;6.27;;;;;;;;;;5094103;28;20450;-74
2022/11/01 10:06:40;;;;;;;326.13;180.43;;;;;;;;;;5092875;28;20467;-74
2022/11/01 10:09:10;;;;;;;61.13;34.30;;;;;;;;;;5094288;28;20462;-74
2022/11/01 10:11:59;;;;;;;9.37;8.33;;;;;;;;;;5093291;28;20450;-74
2022/11/01 10:14:40;;;;;;;17.07;7.23;;;;;;;;;;5093983;28;20471;-74
2022/11/01 10:17:13;;;;;;;7.63;5.63;;;;;;;;;;5094355;28;20474;-74
2022/11/01 10:19:40;;;;;;;11.33;7.70;;;;;;;;;;5094011;28;20890;-74
2022/11/01 10:22:13;;;;;;;7.50;6.40;;;;;;;;;;5091672;28;20820;-74
2022/11/01 10:24:42;;;;;;;19.37;9.37;;;;;;;;;;5073245;28;20460;-74
2022/11/01 10:27:14;;;;;;;10.10;7.53;;;;;;;;;;5074697;28;20467;-74
2022/11/01 10:29:43;;;;;;;7.53;6.57;;;;;;;;;;5075092;28;20916;-74
2022/11/01 10:32:16;;;;;;;6.90;6.10;;;;;;;;;;5074765;28;20460;-74
2022/11/01 10:34:44;;;;;;;6.07;5.20;;;;;;;;;;5074669;28;20463;-74
2022/11/01 10:37:16;;;;;;;8.13;5.43;;;;;;;;;;5073335;28;20491;-74
2022/11/01 10:39:46;;;;;;;6.50;5.20;;;;;;;;;;5074937;28;20987;-74
2022/11/01 10:42:14;;;;;;;6.70;5.30;;;;;;;;;;5075295;28;20456;-74
2022/11/01 10:44:43;;;;;;;8.60;6.10;;;;;;;;;;5074539;28;20975;-73
2022/11/01 10:47:13;;;;;;;5.80;5.20;;;;;;;;;;5074857;28;20475;-73
2022/11/01 10:49:44;;;;;;;7.17;5.30;;;;;;;;;;5074969;28;20452;-74
2022/11/01 10:52:13;;;;;;;8.20;5.67;;;;;;;;;;5075009;28;20460;-74
2022/11/01 10:54:43;;;;;;;6.53;5.50;;;;;;;;;;5074344;28;20474;-75
2022/11/01 10:57:13;;;;;;;9.43;6.20;;;;;;;;;;5074978;28;20479;-74
2022/11/01 10:59:41;;;;;;;7.70;6.30;;;;;;;;;;5074708;28;20452;-74
2022/11/01 11:02:21;;;;;;;7.43;5.67;;;;;;;;;;5074889;28;20998;-74
2022/11/01 11:04:48;;;;;;;6.93;5.63;;;;;;;;;;5074113;28;20456;-74
2022/11/01 11:07:16;;;;;;;9.70;5.73;;;;;;;;;;5074638;28;20913;-74
2022/11/01 11:09:48;;;;;;;7.77;6.13;;;;;;;;;;5074362;28;20827;-74
2022/11/01 11:12:17;;;;;;;7.47;5.30;;;;;;;;;;5074440;28;20472;-75
2022/11/01 11:14:46;;;;;;;6.50;5.63;;;;;;;;;;5073921;28;20559;-75
2022/11/01 11:17:18;;;;;;;18.40;6.03;;;;;;;;;;5074336;28;20478;-73
2022/11/01 11:19:47;;;;;;;11.93;5.40;;;;;;;;;;5074262;28;20803;-74
2022/11/01 11:22:14;;;;;;;8.10;5.90;;;;;;;;;;5074499;28;20466;-74
2022/11/01 11:24:43;;;;;;;7.43;6.23;;;;;;;;;;5072305;28;20505;-74
2022/11/01 11:27:19;;;;;;;6.73;6.13;;;;;;;;;;5074268;28;20517;-73
2022/11/01 11:29:48;;;;;;;28.87;23.97;;;;;;;;;;5074042;28;20808;-74
2022/11/01 11:32:17;;;;;;;11.53;6.80;;;;;;;;;;5074206;28;20460;-74
2022/11/01 11:34:44;;;;;;;10.43;6.50;;;;;;;;;;5073584;28;20452;-74
2022/11/01 11:37:20;;;;;;;17.60;7.73;;;;;;;;;;5074081;28;20850;-74
2022/11/01 11:40:00;;;;;;;14.90;11.73;;;;;;;;;;5073939;28;20466;-73
2022/11/01 11:42:31;;;;;;;9.20;8.00;;;;;;;;;;5074013;28;20965;-74
2022/11/01 11:45:13;;;;;;;16.07;12.87;;;;;;;;;;5073587;28;20535;-73
2022/11/01 11:47:40;;;;;;;13.77;7.30;;;;;;;;;;5073772;28;20447;-74
2022/11/01 11:50:32;;;;;;;10.53;6.47;;;;;;;;;;5073744;28;20456;-76
2022/11/01 11:53:00;;;;;;;13.07;6.70;;;;;;;;;;5058921;28;20459;-74
2022/11/01 11:55:30;;;;;;;13.73;8.60;;;;;;;;;;5073105;28;20487;-74
2022/11/01 11:57:58;;;;;;;14.80;7.73;;;;;;;;;;5073629;28;20456;-73
2022/11/01 12:00:28;;;;;;;8.67;7.60;;;;;;;;;;5073680;28;20455;-74
2022/11/01 12:02:55;;;;;;;10.70;7.70;;;;;;;;;;5073407;28;20965;-74
2022/11/01 12:05:25;;;;;;;13.23;7.83;;;;;;;;;;5072906;28;20471;-73
2022/11/01 12:07:53;;;;;;;9.93;8.30;;;;;;;;;;5073698;28;20509;-73
2022/11/01 12:10:32;;;;;;;11.83;10.23;;;;;;;;;;5073429;28;20452;-74
2022/11/01 12:13:01;;;;;;;14.40;7.03;;;;;;;;;;5073486;28;20456;-73
2022/11/01 12:15:29;;;;;;;10.23;7.47;;;;;;;;;;5072572;28;20495;-74
2022/11/01 12:17:57;;;;;;;18.80;10.20;;;;;;;;;;5072982;28;20452;-74
2022/11/01 12:20:25;;;;;;;8.53;6.60;;;;;;;;;;5073245;28;20456;-74
2022/11/01 12:22:54;;;;;;;10.70;7.67;;;;;;;;;;5073153;28;20450;-74
2022/11/01 12:25:22;;;;;;;9.60;7.80;;;;;;;;;;5071096;28;20956;-74
2022/11/01 12:27:58;;;;;;;10.60;7.50;;;;;;;;;;5073045;28;20452;-74
2022/11/01 12:30:28;;;;;;;14.20;8.20;;;;;;;;;;5072888;28;20459;-73
2022/11/01 12:32:57;;;;;;;11.07;6.90;;;;;;;;;;5073200;28;20459;-73
2022/11/01 12:35:27;;;;;;;7.47;6.43;;;;;;;;;;5072517;28;20475;-73
2022/11/01 12:38:18;;;;;;;9.17;7.67;;;;;;;;;;5073162;28;21002;-72
2022/11/01 12:40:48;;;;;;;9.57;7.70;;;;;;;;;;5072871;28;20949;-72
2022/11/01 12:43:16;;;;;;;16.37;7.03;;;;;;;;;;5072839;28;20448;-73
2022/11/01 12:45:48;;;;;;;10.20;6.60;;;;;;;;;;5072397;28;20469;-73
2022/11/01 12:48:19;;;;;;;11.93;8.10;;;;;;;;;;5072880;28;20456;-73
2022/11/01 12:50:48;;;;;;;11.03;7.10;;;;;;;;;;5072900;28;20463;-73
2022/11/01 12:53:17;;;;;;;13.77;7.00;;;;;;;;;;5072577;28;20447;-74
2022/11/01 12:55:44;;;;;;;10.67;9.63;;;;;;;;;;5067443;28;20531;-74
2022/11/01 12:58:13;;;;;;;13.10;8.43;;;;;;;;;;5089299;28;20830;-73
2022/11/01 13:00:48;;;;;;;12.37;8.00;;;;;;;;;;5090864;28;20907;-73
2022/11/01 13:03:23;;;;;;;12.20;9.17;;;;;;;;;;5090678;28;20511;-74
2022/11/01 13:05:54;;;;;;;9.20;7.47;;;;;;;;;;5090823;28;20513;-73
2022/11/01 13:08:24;;;;;;;14.13;7.30;;;;;;;;;;5088722;28;20453;-73
2022/11/01 13:10:53;;;;;;;11.03;7.97;;;;;;;;;;5090473;28;20847;-74
2022/11/01 13:13:25;;;;;;;11.77;7.37;;;;;;;;;;5091144;28;20947;-73
2022/11/01 13:15:56;;;;;;;9.43;7.20;;;;;;;;;;5090445;28;20493;-73
2022/11/01 13:18:29;;;;;;;13.57;8.80;;;;;;;;;;5090026;28;20450;-74
2022/11/01 13:21:00;;;;;;;10.93;8.23;;;;;;;;;;5090416;28;20450;-74
2022/11/01 13:23:30;;;;;;;9.77;7.30;;;;;;;;;;5090763;28;20460;-73
2022/11/01 13:26:02;;;;;;;11.00;7.00;;;;;;;;;;5088877;28;20458;-74
2022/11/01 13:28:34;;;;;;;12.40;7.90;;;;;;;;;;5090290;28;20450;-74
2022/11/01 13:31:04;;;;;;;21.77;10.70;;;;;;;;;;5090465;28;20453;-73
2022/11/01 13:33:37;;;;;;;12.03;7.30;;;;;;;;;;5090132;28;20481;-73
2022/11/01 13:36:06;;;;;;;13.00;8.10;;;;;;;;;;5092882;28;20497;-73
2022/11/01 13:38:37;;;;;;;11.20;7.10;;;;;;;;;;5094051;28;20460;-73
2022/11/01 13:41:08;;;;;;;8.40;6.90;;;;;;;;;;5094147;28;20461;-73
2022/11/01 13:43:38;;;;;;;10.53;7.23;;;;;;;;;;5094468;28;20454;-73
2022/11/01 13:46:38;;;;;;;13.83;8.60;;;;;;;;;;5094303;28;20553;-73
2022/11/01 13:49:26;;;;;;;21.30;7.80;;;;;;;;;;5093810;28;21045;-73
2022/11/01 13:52:00;;;;;;;9.07;6.73;;;;;;;;;;5089448;28;20656;-73
2022/11/01 13:54:28;;;;;;;9.90;7.20;;;;;;;;;;5094128;28;21025;-74
2022/11/01 13:56:56;;;;;;;14.07;7.73;;;;;;;;;;5093431;28;20585;-73
2022/11/01 13:59:31;;;;;;;12.13;7.30;;;;;;;;;;5093956;28;20457;-73
2022/11/01 14:02:29;;;;;;;16.13;7.67;;;;;;;;;;5094309;28;20565;-73
2022/11/01 14:04:57;;;;;;;12.73;8.10;;;;;;;;;;5093720;28;20968;-73
2022/11/01 14:07:26;;;;;;;16.87;9.13;;;;;;;;;;5094396;28;20474;-73
2022/11/01 14:09:54;;;;;;;18.30;9.50;;;;;;;;;;5092851;28;20458;-74
2022/11/01 14:12:31;;;;;;;16.20;8.40;;;;;;;;;;5094277;28;20454;-73
2022/11/01 14:15:18;;;;;;;13.37;8.50;;;;;;;;;;5093566;28;20535;-73
2022/11/01 14:18:02;;;;;;;15.00;10.73;;;;;;;;;;5093351;28;20505;-73
2022/11/01 14:20:37;;;;;;;13.30;10.47;;;;;;;;;;5093415;28;20481;-74
2022/11/01 14:23:19;;;;;;;15.30;10.53;;;;;;;;;;5093895;28;20452;-73
2022/11/01 14:25:48;;;;;;;17.20;11.97;;;;;;;;;;5091197;28;20480;-73
2022/11/01 14:28:22;;;;;;;15.10;11.13;;;;;;;;;;5093674;28;20468;-73
2022/11/01 14:30:49;;;;;;;13.80;9.10;;;;;;;;;;5093359;28;20563;-73
2022/11/01 14:33:18;;;;;;;16.33;9.57;;;;;;;;;;5093282;28;20447;-73
2022/11/01 14:35:47;;;;;;;14.93;11.93;;;;;;;;;;5093248;28;20474;-73
2022/11/01 14:38:17;;;;;;;15.60;12.20;;;;;;;;;;5091394;28;20968;-73
2022/11/01 14:40:47;;;;;;;10.93;8.90;;;;;;;;;;5092486;28;20763;-73